createdAt,value
2022-10-06T00:01:18.365Z,80.65
2022-10-06T00:03:47.111Z,81.00
2022-10-06T00:06:17.379Z,80.96
2022-10-06T00:08:47.041Z,81.32
2022-10-06T00:11:16.396Z,81.40
2022-10-06T00:13:44.563Z,81.60
2022-10-06T00:16:17.483Z,82.03
2022-10-06T00:18:45.715Z,82.21
2022-10-06T00:21:14.330Z,82.16
2022-10-06T00:23:42.595Z,82.37
2022-10-06T00:26:17.306Z,82.37
2022-10-06T00:28:48.927Z,82.31
2022-10-06T00:31:19.659Z,82.31
2022-10-06T00:33:49.826Z,81.95
2022-10-06T00:36:18.674Z,82.19
2022-10-06T00:38:46.618Z,82.19
2022-10-06T00:41:17.140Z,82.10
2022-10-06T00:43:54.644Z,81.85
2022-10-06T00:46:47.933Z,81.61
2022-10-06T00:49:30.976Z,81.47
2022-10-06T00:52:03.730Z,81.35
2022-10-06T00:54:33.892Z,81.24
2022-10-06T00:57:03.213Z,81.51
2022-10-06T00:59:31.290Z,81.54
2022-10-06T01:02:02.215Z,81.73
2022-10-06T01:04:34.078Z,81.86
2022-10-06T01:07:03.495Z,81.67
2022-10-06T01:09:32.047Z,81.74
2022-10-06T01:12:04.431Z,81.72
2022-10-06T01:14:33.966Z,81.85
2022-10-06T01:17:29.712Z,81.83
2022-10-06T01:20:00.348Z,82.07
2022-10-06T01:22:31.763Z,82.21
2022-10-06T01:25:00.516Z,82.65
2022-10-06T01:27:30.958Z,83.16
2022-10-06T01:29:59.744Z,83.31
2022-10-06T01:32:33.697Z,83.27
2022-10-06T01:35:01.716Z,83.06
2022-10-06T01:37:29.601Z,83.08
2022-10-06T01:39:57.631Z,82.65
2022-10-06T01:42:25.875Z,82.23
2022-10-06T01:44:53.803Z,82.07
2022-10-06T01:47:21.574Z,81.90
2022-10-06T01:49:49.387Z,81.81
2022-10-06T01:52:17.227Z,81.87
2022-10-06T01:54:45.555Z,81.81
2022-10-06T01:57:13.513Z,81.90
2022-10-06T01:59:41.474Z,81.97
2022-10-06T02:02:09.551Z,82.12
2022-10-06T02:04:37.496Z,82.31
2022-10-06T02:07:06.042Z,82.74
2022-10-06T02:09:34.331Z,82.74
2022-10-06T02:12:02.637Z,82.46
2022-10-06T02:14:32.269Z,82.64
2022-10-06T02:17:01.098Z,82.56
2022-10-06T02:19:29.019Z,82.60
2022-10-06T02:21:58.462Z,82.75
2022-10-06T02:24:26.276Z,82.91
2022-10-06T02:26:54.653Z,83.12
2022-10-06T02:29:22.594Z,82.88
2022-10-06T02:31:50.568Z,82.76
2022-10-06T02:34:19.042Z,82.83
2022-10-06T02:36:46.957Z,82.60
2022-10-06T02:39:14.979Z,82.82
2022-10-06T02:41:42.821Z,83.00
2022-10-06T02:44:10.786Z,83.08
2022-10-06T02:46:38.768Z,82.94
2022-10-06T02:49:06.564Z,82.87
2022-10-06T02:51:34.347Z,82.97
2022-10-06T02:54:02.115Z,82.87
2022-10-06T02:56:29.993Z,83.38
2022-10-06T02:58:57.842Z,83.63
2022-10-06T03:01:27.975Z,83.74
2022-10-06T03:03:56.329Z,83.51
2022-10-06T03:06:28.298Z,83.25
2022-10-06T03:08:58.775Z,83.11
2022-10-06T03:11:32.397Z,82.97
2022-10-06T03:14:00.753Z,83.04
2022-10-06T03:16:32.173Z,82.78
2022-10-06T03:19:01.668Z,82.97
2022-10-06T03:21:32.241Z,83.09
2022-10-06T03:24:01.124Z,83.15
2022-10-06T03:26:37.579Z,83.32
2022-10-06T03:29:15.759Z,83.15
2022-10-06T03:31:44.733Z,83.18
2022-10-06T03:34:15.530Z,83.19
2022-10-06T03:36:46.587Z,83.61
2022-10-06T03:39:14.495Z,83.93
2022-10-06T03:41:42.323Z,83.83
2022-10-06T03:44:10.267Z,83.82
2022-10-06T03:46:38.277Z,83.99
2022-10-06T03:49:06.260Z,84.20
2022-10-06T03:51:37.424Z,83.81
2022-10-06T03:54:05.363Z,83.84
2022-10-06T03:56:35.639Z,84.05
2022-10-06T03:59:07.123Z,83.75
2022-10-06T04:01:37.967Z,83.65
2022-10-06T04:04:06.761Z,83.48
2022-10-06T04:06:37.321Z,83.39
2022-10-06T04:09:14.692Z,83.36
2022-10-06T04:11:44.637Z,83.33
2022-10-06T04:14:15.479Z,83.38
2022-10-06T04:16:46.221Z,83.32
2022-10-06T04:19:16.008Z,83.40
2022-10-06T04:21:46.030Z,83.77
2022-10-06T04:24:14.705Z,83.82
2022-10-06T04:26:48.964Z,83.82
2022-10-06T04:29:17.420Z,83.93
2022-10-06T04:31:46.251Z,84.00
2022-10-06T04:34:14.225Z,84.05
2022-10-06T04:36:43.059Z,83.97
2022-10-06T04:39:12.474Z,84.08
2022-10-06T04:41:42.374Z,84.13
2022-10-06T04:44:10.539Z,84.25
2022-10-06T04:46:43.186Z,84.13
2022-10-06T04:49:17.947Z,84.12
2022-10-06T04:51:48.947Z,84.02
2022-10-06T04:54:17.291Z,84.29
2022-10-06T04:56:45.346Z,84.35
2022-10-06T04:59:13.306Z,84.14
2022-10-06T05:01:41.106Z,83.99
2022-10-06T05:04:08.975Z,84.08
2022-10-06T05:06:41.917Z,84.08
2022-10-06T05:09:15.817Z,84.23
2022-10-06T05:11:44.000Z,84.48
2022-10-06T05:14:11.915Z,84.60
2022-10-06T05:16:40.056Z,84.51
2022-10-06T05:19:08.388Z,84.44
2022-10-06T05:21:36.650Z,84.56
2022-10-06T05:24:04.606Z,84.37
2022-10-06T05:26:35.042Z,84.26
2022-10-06T05:29:03.483Z,84.20
2022-10-06T05:31:35.348Z,84.18
2022-10-06T05:34:03.281Z,84.24
2022-10-06T05:36:34.143Z,84.28
2022-10-06T05:39:03.043Z,84.36
2022-10-06T05:41:32.949Z,84.35
2022-10-06T05:44:00.849Z,84.54
2022-10-06T05:46:36.328Z,84.43
2022-10-06T05:49:10.754Z,84.22
2022-10-06T05:51:42.490Z,84.03
2022-10-06T05:54:10.320Z,83.80
2022-10-06T05:56:39.173Z,83.68
2022-10-06T05:59:07.480Z,83.52
2022-10-06T06:01:41.286Z,83.43
2022-10-06T06:04:10.686Z,83.22
2022-10-06T06:06:41.547Z,82.99
2022-10-06T06:09:13.633Z,82.70
2022-10-06T06:11:44.166Z,82.45
2022-10-06T06:14:17.486Z,82.47
2022-10-06T06:16:46.600Z,82.30
2022-10-06T06:19:14.743Z,81.82
2022-10-06T06:21:42.726Z,81.96
2022-10-06T06:24:10.715Z,81.43
2022-10-06T06:26:38.736Z,81.29
2022-10-06T06:29:06.714Z,81.40
2022-10-06T06:31:37.249Z,81.07
2022-10-06T06:34:07.070Z,80.97
2022-10-06T06:36:41.291Z,80.77
2022-10-06T06:39:14.549Z,80.50
2022-10-06T06:41:45.347Z,80.49
2022-10-06T06:44:14.073Z,80.20
2022-10-06T06:46:44.929Z,80.04
2022-10-06T06:49:13.003Z,80.05
2022-10-06T06:51:44.322Z,80.07
2022-10-06T06:54:13.073Z,80.20
2022-10-06T06:56:41.437Z,80.12
2022-10-06T06:59:11.779Z,80.18
2022-10-06T07:01:44.646Z,80.10
2022-10-06T07:04:17.722Z,79.41
2022-10-06T07:06:57.250Z,79.12
2022-10-06T07:09:26.536Z,78.93
2022-10-06T07:11:55.374Z,78.85
2022-10-06T07:14:24.509Z,78.72
2022-10-06T07:17:11.530Z,78.68
2022-10-06T07:20:11.748Z,78.27
2022-10-06T07:22:58.872Z,77.75
2022-10-06T07:25:27.630Z,77.89
2022-10-06T07:27:55.757Z,77.97
2022-10-06T07:30:29.145Z,78.20
2022-10-06T07:32:57.180Z,77.88
2022-10-06T07:35:25.751Z,77.13
2022-10-06T07:37:53.712Z,76.87
2022-10-06T07:40:21.867Z,76.57
2022-10-06T07:42:52.085Z,76.21
2022-10-06T07:45:38.489Z,76.17
2022-10-06T07:48:15.302Z,76.20
2022-10-06T07:50:44.594Z,76.11
2022-10-06T07:53:13.277Z,76.20
2022-10-06T07:55:44.667Z,75.99
2022-10-06T07:58:17.922Z,75.51
2022-10-06T08:00:46.941Z,75.40
2022-10-06T08:03:19.336Z,74.58
2022-10-06T08:05:49.050Z,74.37
2022-10-06T08:08:17.746Z,74.43
2022-10-06T08:10:54.025Z,74.85
2022-10-06T08:13:22.338Z,74.89
2022-10-06T08:15:51.372Z,75.33
2022-10-06T08:18:41.066Z,74.55
2022-10-06T08:21:14.719Z,74.99
2022-10-06T08:23:43.517Z,74.83
2022-10-06T08:26:13.484Z,74.62
2022-10-06T08:28:45.726Z,73.45
2022-10-06T08:31:15.942Z,73.74
2022-10-06T08:33:45.881Z,73.80
2022-10-06T08:36:16.746Z,73.28
2022-10-06T08:38:50.301Z,73.54
2022-10-06T08:41:21.372Z,72.82
2022-10-06T08:44:20.966Z,72.43
2022-10-06T08:47:03.147Z,72.70
2022-10-06T08:49:39.451Z,72.35
2022-10-06T08:52:21.456Z,71.92
2022-10-06T08:55:01.656Z,71.09
2022-10-06T08:57:35.555Z,70.71
2022-10-06T09:00:13.113Z,71.09
2022-10-06T09:02:47.566Z,69.92
2022-10-06T09:05:25.762Z,69.65
2022-10-06T09:08:06.102Z,69.14
2022-10-06T09:10:42.834Z,68.79
2022-10-06T09:13:22.215Z,68.65
2022-10-06T09:16:07.342Z,68.22
2022-10-06T09:19:06.674Z,67.68
2022-10-06T09:21:38.645Z,67.43
2022-10-06T09:24:14.062Z,67.43
2022-10-06T09:26:48.646Z,66.60
2022-10-06T09:29:17.113Z,65.13
2022-10-06T09:31:51.279Z,64.82
2022-10-06T09:34:28.230Z,64.65
2022-10-06T09:37:01.906Z,64.24
2022-10-06T09:39:36.704Z,64.51
2022-10-06T09:42:26.075Z,64.93
2022-10-06T09:45:23.944Z,64.28
2022-10-06T09:47:51.951Z,63.53
2022-10-06T09:50:23.930Z,63.80
2022-10-06T09:52:59.738Z,63.79
2022-10-06T09:55:39.034Z,63.76
2022-10-06T09:58:17.098Z,64.18
2022-10-06T10:01:09.555Z,64.40
2022-10-06T10:06:42.166Z,62.84
2022-10-06T10:09:29.223Z,63.46
2022-10-06T10:12:32.644Z,63.34
2022-10-06T10:15:11.688Z,62.57
2022-10-06T10:17:48.134Z,61.72
2022-10-06T10:20:39.002Z,60.78
2022-10-06T10:23:20.824Z,60.93
2022-10-06T10:25:58.721Z,60.87
2022-10-06T10:28:51.716Z,60.06
2022-10-06T10:31:49.593Z,58.47
2022-10-06T10:34:48.723Z,58.14
2022-10-06T10:37:23.703Z,58.02
2022-10-06T10:39:56.601Z,58.63
2022-10-06T10:42:32.159Z,57.28
2022-10-06T10:45:04.509Z,57.42
2022-10-06T10:47:39.595Z,56.80
2022-10-06T10:50:25.859Z,55.17
2022-10-06T10:53:02.840Z,55.48
2022-10-06T10:55:53.061Z,54.26
2022-10-06T10:58:33.393Z,54.05
2022-10-06T11:01:21.209Z,53.39
2022-10-06T11:03:58.908Z,53.98
2022-10-06T11:06:41.917Z,54.32
2022-10-06T11:09:27.627Z,53.99
2022-10-06T11:12:07.991Z,53.56
2022-10-06T11:14:59.784Z,53.17
2022-10-06T11:18:08.219Z,53.25
2022-10-06T11:20:44.281Z,52.67
2022-10-06T11:23:51.078Z,52.15
2022-10-06T11:26:48.978Z,53.32
2022-10-06T11:29:27.263Z,52.98
2022-10-06T11:32:06.900Z,53.02
2022-10-06T11:34:34.707Z,52.39
2022-10-06T11:37:23.941Z,53.12
2022-10-06T11:40:03.973Z,52.93
2022-10-06T11:42:43.979Z,51.95
2022-10-06T11:45:16.444Z,52.95
2022-10-06T11:47:56.309Z,52.83
2022-10-06T11:50:46.888Z,52.09
2022-10-06T11:53:38.098Z,52.41
2022-10-06T11:56:18.245Z,51.89
2022-10-06T11:58:52.169Z,51.28
2022-10-06T12:01:51.227Z,51.85
2022-10-06T12:04:24.368Z,52.02
2022-10-06T12:06:55.494Z,51.57
2022-10-06T12:09:28.859Z,51.51
2022-10-06T12:11:57.632Z,51.43
2022-10-06T12:17:57.890Z,52.28
2022-10-06T12:20:40.920Z,52.50
2022-10-06T12:23:08.609Z,52.14
2022-10-06T12:25:40.540Z,52.30
2022-10-06T12:28:41.559Z,52.31
2022-10-06T12:31:18.397Z,52.65
2022-10-06T12:33:47.111Z,53.01
2022-10-06T12:36:26.939Z,53.69
2022-10-06T12:39:04.930Z,53.63
2022-10-06T12:41:54.352Z,52.66
2022-10-06T12:44:37.990Z,52.33
2022-10-06T12:47:19.157Z,53.09
2022-10-06T12:50:20.240Z,52.39
2022-10-06T12:53:05.939Z,51.94
2022-10-06T12:55:33.934Z,51.65
2022-10-06T12:58:01.843Z,52.80
2022-10-06T13:00:33.442Z,52.85
2022-10-06T13:03:03.475Z,53.17
2022-10-06T13:05:33.461Z,52.72
2022-10-06T13:08:03.991Z,52.89
2022-10-06T13:10:33.057Z,52.43
2022-10-06T13:13:01.459Z,52.20
2022-10-06T13:15:34.978Z,52.33
2022-10-06T13:18:19.700Z,53.05
2022-10-06T13:20:50.509Z,52.52
2022-10-06T13:23:34.358Z,52.59
2022-10-06T13:26:08.722Z,53.39
2022-10-06T13:28:36.769Z,52.31
2022-10-06T13:31:35.230Z,52.09
2022-10-06T13:34:23.352Z,51.96
2022-10-06T13:36:52.444Z,53.07
2022-10-06T13:39:23.477Z,53.30
2022-10-06T13:42:00.487Z,53.27
2022-10-06T13:44:39.712Z,52.99
2022-10-06T13:47:22.822Z,52.38
2022-10-06T13:50:07.536Z,50.16
2022-10-06T13:52:39.852Z,46.78
2022-10-06T13:55:24.221Z,47.24
2022-10-06T13:58:09.286Z,47.38
2022-10-06T14:01:00.655Z,45.12
2022-10-06T14:06:27.886Z,45.05
2022-10-06T14:08:57.947Z,44.90
2022-10-06T14:11:30.043Z,45.00
2022-10-06T14:14:01.578Z,45.11
2022-10-06T14:16:29.659Z,45.70
2022-10-06T14:19:02.196Z,46.29
2022-10-06T14:21:37.011Z,45.63
2022-10-06T14:24:17.043Z,45.65
2022-10-06T14:26:46.920Z,45.99
2022-10-06T14:29:14.999Z,46.56
2022-10-06T14:31:43.739Z,46.87
2022-10-06T14:34:17.081Z,47.56
2022-10-06T14:36:47.604Z,48.02
2022-10-06T14:39:16.118Z,48.15
2022-10-06T14:41:45.554Z,48.68
2022-10-06T14:44:15.711Z,49.46
2022-10-06T14:46:47.724Z,50.17
2022-10-06T14:49:16.504Z,49.96
2022-10-06T14:51:44.968Z,50.18
2022-10-06T14:54:13.720Z,51.01
2022-10-06T14:56:42.542Z,50.93
2022-10-06T14:59:16.957Z,51.09
2022-10-06T15:02:03.730Z,51.94
2022-10-06T15:04:31.606Z,52.28
2022-10-06T15:07:18.226Z,52.76
2022-10-06T15:09:46.697Z,52.59
2022-10-06T15:12:14.833Z,52.47
2022-10-06T15:14:42.850Z,53.13
2022-10-06T15:17:10.915Z,52.82
2022-10-06T15:19:40.416Z,53.24
2022-10-06T15:22:10.078Z,53.44
2022-10-06T15:24:38.026Z,53.56
2022-10-06T15:27:25.263Z,53.59
2022-10-06T15:29:53.616Z,54.33
2022-10-06T15:32:22.723Z,54.57
2022-10-06T15:34:52.445Z,54.94
2022-10-06T15:37:20.433Z,55.32
2022-10-06T15:39:48.580Z,55.59
2022-10-06T15:42:18.823Z,56.08
2022-10-06T15:44:46.776Z,56.33
2022-10-06T15:47:14.633Z,56.94
2022-10-06T15:49:42.633Z,57.22
2022-10-06T15:52:12.479Z,57.43
2022-10-06T15:54:48.185Z,57.89
2022-10-06T15:57:20.607Z,58.17
2022-10-06T15:59:49.474Z,58.49
2022-10-06T16:02:19.866Z,58.76
2022-10-06T16:05:04.976Z,59.13
2022-10-06T16:07:34.112Z,59.37
2022-10-06T16:10:01.959Z,59.63
2022-10-06T16:12:32.907Z,59.79
2022-10-06T16:15:01.852Z,59.77
2022-10-06T16:17:29.879Z,60.03
2022-10-06T16:19:59.242Z,60.33
2022-10-06T16:22:30.344Z,60.16
2022-10-06T16:25:00.941Z,60.15
2022-10-06T16:27:33.226Z,60.33
2022-10-06T16:30:01.510Z,60.49
2022-10-06T16:32:29.708Z,60.85
2022-10-06T16:35:01.072Z,61.60
2022-10-06T16:37:31.914Z,61.59
2022-10-06T16:40:01.578Z,61.58
2022-10-06T16:42:30.335Z,61.72
2022-10-06T16:44:58.299Z,61.92
2022-10-06T16:47:26.558Z,62.24
2022-10-06T16:49:54.478Z,62.40
2022-10-06T16:52:22.470Z,62.57
2022-10-06T16:54:59.505Z,62.89
2022-10-06T16:57:27.776Z,62.82
2022-10-06T16:59:58.160Z,63.09
2022-10-06T17:02:26.615Z,63.28
2022-10-06T17:04:55.137Z,63.21
2022-10-06T17:07:23.147Z,63.24
2022-10-06T17:10:19.124Z,63.41
2022-10-06T17:12:49.038Z,63.74
2022-10-06T17:15:19.802Z,63.59
2022-10-06T17:17:48.081Z,63.76
2022-10-06T17:20:18.620Z,64.05
2022-10-06T17:22:46.707Z,64.40
2022-10-06T17:25:15.477Z,64.83
2022-10-06T17:27:46.132Z,64.79
2022-10-06T17:30:16.227Z,65.00
2022-10-06T17:32:47.462Z,64.81
2022-10-06T17:35:15.573Z,64.87
2022-10-06T17:37:51.026Z,65.32
2022-10-06T17:40:23.685Z,65.50
2022-10-06T17:42:51.763Z,65.43
2022-10-06T17:45:21.430Z,65.76
2022-10-06T17:47:49.675Z,65.86
2022-10-06T17:50:17.661Z,66.05
2022-10-06T17:52:46.845Z,66.20
2022-10-06T17:55:18.157Z,66.41
2022-10-06T17:57:52.901Z,66.65
2022-10-06T18:00:25.369Z,67.23
2022-10-06T18:03:00.948Z,67.51
2022-10-06T18:05:33.148Z,67.87
2022-10-06T18:08:01.823Z,68.09
2022-10-06T18:10:48.777Z,68.35
2022-10-06T18:13:17.945Z,68.82
2022-10-06T18:15:49.748Z,69.50
2022-10-06T18:18:17.713Z,69.62
2022-10-06T18:20:53.830Z,69.79
2022-10-06T18:23:23.139Z,70.23
2022-10-06T18:25:51.154Z,70.33
2022-10-06T18:28:31.346Z,70.34
2022-10-06T18:31:01.316Z,70.55
2022-10-06T18:36:20.325Z,70.90
2022-10-06T18:38:54.422Z,71.02
2022-10-06T18:41:25.254Z,71.02
2022-10-06T18:43:54.106Z,71.58
2022-10-06T18:46:41.721Z,71.52
2022-10-06T18:49:16.010Z,71.73
2022-10-06T18:51:58.112Z,71.87
2022-10-06T18:54:29.387Z,72.02
2022-10-06T18:56:57.893Z,72.01
2022-10-06T18:59:28.368Z,72.32
2022-10-06T19:01:58.366Z,72.24
2022-10-06T19:04:35.517Z,72.31
2022-10-06T19:07:03.684Z,72.23
2022-10-06T19:09:34.214Z,72.43
2022-10-06T19:12:02.373Z,72.26
2022-10-06T19:14:36.654Z,72.31
2022-10-06T19:17:14.037Z,72.20
2022-10-06T19:19:48.247Z,72.29
2022-10-06T19:22:20.107Z,72.22
2022-10-06T19:24:48.665Z,72.29
2022-10-06T19:27:20.836Z,72.12
2022-10-06T19:29:54.727Z,72.38
2022-10-06T19:32:41.906Z,72.56
2022-10-06T19:35:11.055Z,72.69
2022-10-06T19:37:47.209Z,72.65
2022-10-06T19:40:15.329Z,72.75
2022-10-06T19:42:51.296Z,72.84
2022-10-06T19:45:21.515Z,72.84
2022-10-06T19:47:51.507Z,73.00
2022-10-06T19:50:19.786Z,73.18
2022-10-06T19:52:47.834Z,73.28
2022-10-06T19:55:23.118Z,73.25
2022-10-06T19:57:52.114Z,73.59
2022-10-06T20:00:20.233Z,73.68
2022-10-06T20:02:48.313Z,73.71
2022-10-06T20:05:17.356Z,73.82
2022-10-06T20:07:47.264Z,73.80
2022-10-06T20:10:15.545Z,73.85
2022-10-06T20:12:44.241Z,73.83
2022-10-06T20:15:13.049Z,73.87
2022-10-06T20:17:43.165Z,73.86
2022-10-06T20:20:11.327Z,73.80
2022-10-06T20:22:42.231Z,73.89
2022-10-06T20:25:10.570Z,73.99
2022-10-06T20:27:41.314Z,73.89
2022-10-06T20:30:10.864Z,73.98
2022-10-06T20:32:39.288Z,74.06
2022-10-06T20:35:09.607Z,74.19
2022-10-06T20:37:42.038Z,74.22
2022-10-06T20:40:29.230Z,74.27
2022-10-06T20:42:59.471Z,74.28
2022-10-06T20:45:27.382Z,74.18
2022-10-06T20:48:00.235Z,74.27
2022-10-06T20:50:31.343Z,74.33
2022-10-06T20:53:00.155Z,74.47
2022-10-06T20:55:28.122Z,74.53
2022-10-06T20:57:56.039Z,74.44
2022-10-06T21:00:23.960Z,74.47
2022-10-06T21:02:51.908Z,74.51
2022-10-06T21:05:20.309Z,74.54
2022-10-06T21:07:49.623Z,74.64
2022-10-06T21:10:20.375Z,74.54
2022-10-06T21:12:48.217Z,74.44
2022-10-06T21:15:16.266Z,74.67
2022-10-06T21:17:47.874Z,74.58
2022-10-06T21:20:15.847Z,74.72
2022-10-06T21:22:43.713Z,74.58
2022-10-06T21:25:11.519Z,74.62
2022-10-06T21:27:40.549Z,74.66
2022-10-06T21:30:10.373Z,74.85
2022-10-06T21:32:38.287Z,74.64
2022-10-06T21:35:07.229Z,74.90
2022-10-06T21:37:40.234Z,74.96
2022-10-06T21:40:19.794Z,75.08
2022-10-06T21:42:47.857Z,75.04
2022-10-06T21:45:15.715Z,75.34
2022-10-06T21:47:45.289Z,75.34
2022-10-06T21:50:17.134Z,75.54
2022-10-06T21:52:45.731Z,76.00
2022-10-06T21:55:13.657Z,76.06
2022-10-06T21:57:41.780Z,76.33
2022-10-06T22:00:11.396Z,76.34
2022-10-06T22:02:39.340Z,76.43
2022-10-06T22:05:07.948Z,76.38
2022-10-06T22:07:42.235Z,76.52
2022-10-06T22:10:10.227Z,76.65
2022-10-06T22:12:38.195Z,76.76
2022-10-06T22:15:06.832Z,76.45
2022-10-06T22:17:34.885Z,76.69
2022-10-06T22:20:03.009Z,76.38
2022-10-06T22:22:30.903Z,76.33
2022-10-06T22:24:59.343Z,76.50
2022-10-06T22:27:27.260Z,76.41
2022-10-06T22:29:59.819Z,76.26
2022-10-06T22:32:27.708Z,76.39
2022-10-06T22:34:56.444Z,76.08
2022-10-06T22:37:24.263Z,76.04
2022-10-06T22:39:52.230Z,76.11
2022-10-06T22:42:20.263Z,75.68
2022-10-06T22:44:48.250Z,75.73
2022-10-06T22:47:18.205Z,75.48
2022-10-06T22:49:46.195Z,75.49
2022-10-06T22:52:14.658Z,75.49
2022-10-06T22:54:42.479Z,75.18
2022-10-06T22:57:10.421Z,75.26
2022-10-06T22:59:40.308Z,75.37
2022-10-06T23:02:08.220Z,75.26
2022-10-06T23:04:36.171Z,75.00
2022-10-06T23:07:04.259Z,75.03
2022-10-06T23:09:32.099Z,74.92
2022-10-06T23:11:59.875Z,74.65
2022-10-06T23:14:28.881Z,74.35
2022-10-06T23:16:56.768Z,74.37
2022-10-06T23:19:24.883Z,74.30
2022-10-06T23:21:52.846Z,74.21
2022-10-06T23:24:20.704Z,74.16
2022-10-06T23:26:48.657Z,74.41
2022-10-06T23:29:17.835Z,74.67
2022-10-06T23:31:45.884Z,74.80
2022-10-06T23:34:13.879Z,74.94
2022-10-06T23:36:43.363Z,75.01
2022-10-06T23:39:11.495Z,74.95
2022-10-06T23:41:39.583Z,75.12
2022-10-06T23:44:07.597Z,75.30
2022-10-06T23:46:35.589Z,75.18
2022-10-06T23:49:03.466Z,75.30
2022-10-06T23:51:31.487Z,75.27
2022-10-06T23:53:59.566Z,75.40
2022-10-06T23:56:27.503Z,75.69
2022-10-06T23:58:55.403Z,75.98
